sensor_id;sensor_type;location;lat;lon;timestamp;temperature;humidity
21184;DHT22;18176;49.502;11.754;2023-08-06T00:02:44;15.10;99.90
21184;DHT22;18176;49.502;11.754;2023-08-06T00:06:47;15.10;99.90
21184;DHT22;18176;49.502;11.754;2023-08-06T00:10:47;15.10;99.90
21184;DHT22;18176;49.502;11.754;2023-08-06T00:14:50;15.10;99.90
21184;DHT22;18176;49.502;11.754;2023-08-06T00:18:51;15.10;99.90
21184;DHT22;18176;49.502;11.754;2023-08-06T00:22:54;15.20;99.90
21184;DHT22;18176;49.502;11.754;2023-08-06T00:26:54;15.30;99.90
21184;DHT22;18176;49.502;11.754;2023-08-06T00:30:55;15.20;99.90
21184;DHT22;18176;49.502;11.754;2023-08-06T00:34:56;14.90;99.90
21184;DHT22;18176;49.502;11.754;2023-08-06T00:38:59;14.60;99.90
21184;DHT22;18176;49.502;11.754;2023-08-06T00:42:59;14.40;99.90
21184;DHT22;18176;49.502;11.754;2023-08-06T00:46:59;14.20;99.90
21184;DHT22;18176;49.502;11.754;2023-08-06T00:51:01;14.20;99.90
21184;DHT22;18176;49.502;11.754;2023-08-06T00:55:06;14.10;99.90
21184;DHT22;18176;49.502;11.754;2023-08-06T00:59:07;14.00;99.90
21184;DHT22;18176;49.502;11.754;2023-08-06T01:03:09;14.00;99.90
21184;DHT22;18176;49.502;11.754;2023-08-06T01:07:21;14.00;99.90
21184;DHT22;18176;49.502;11.754;2023-08-06T01:11:53;14.00;99.90
21184;DHT22;18176;49.502;11.754;2023-08-06T01:15:59;14.00;99.90
21184;DHT22;18176;49.502;11.754;2023-08-06T01:20:01;14.00;99.90
21184;DHT22;18176;49.502;11.754;2023-08-06T01:24:04;13.90;99.90
21184;DHT22;18176;49.502;11.754;2023-08-06T01:28:08;13.90;99.90
21184;DHT22;18176;49.502;11.754;2023-08-06T01:32:16;13.90;99.90
21184;DHT22;18176;49.502;11.754;2023-08-06T01:36:20;13.90;99.90
21184;DHT22;18176;49.502;11.754;2023-08-06T01:40:24;13.90;99.90
21184;DHT22;18176;49.502;11.754;2023-08-06T01:44:25;13.90;99.90
21184;DHT22;18176;49.502;11.754;2023-08-06T01:48:26;13.80;99.90
21184;DHT22;18176;49.502;11.754;2023-08-06T01:52:27;13.80;99.90
21184;DHT22;18176;49.502;11.754;2023-08-06T01:56:30;13.80;99.90
21184;DHT22;18176;49.502;11.754;2023-08-06T02:00:31;13.80;99.90
21184;DHT22;18176;49.502;11.754;2023-08-06T02:04:31;13.80;99.90
21184;DHT22;18176;49.502;11.754;2023-08-06T02:08:32;13.80;99.90
21184;DHT22;18176;49.502;11.754;2023-08-06T02:12:35;13.70;99.90
21184;DHT22;18176;49.502;11.754;2023-08-06T02:16:35;13.70;99.90
21184;DHT22;18176;49.502;11.754;2023-08-06T02:20:36;13.60;99.90
21184;DHT22;18176;49.502;11.754;2023-08-06T02:24:36;13.60;99.90
21184;DHT22;18176;49.502;11.754;2023-08-06T02:28:39;13.60;99.90
21184;DHT22;18176;49.502;11.754;2023-08-06T02:32:39;13.60;99.90
21184;DHT22;18176;49.502;11.754;2023-08-06T02:36:40;13.50;99.90
21184;DHT22;18176;49.502;11.754;2023-08-06T02:40:43;13.50;99.90
21184;DHT22;18176;49.502;11.754;2023-08-06T02:44:48;13.40;99.90
21184;DHT22;18176;49.502;11.754;2023-08-06T02:48:49;13.50;99.90
21184;DHT22;18176;49.502;11.754;2023-08-06T02:52:49;13.40;99.90
21184;DHT22;18176;49.502;11.754;2023-08-06T02:56:49;13.40;99.90
21184;DHT22;18176;49.502;11.754;2023-08-06T03:01:05;13.30;99.90
21184;DHT22;18176;49.502;11.754;2023-08-06T03:05:14;13.30;99.90
21184;DHT22;18176;49.502;11.754;2023-08-06T03:09:16;13.30;99.90
21184;DHT22;18176;49.502;11.754;2023-08-06T03:13:19;13.30;99.90
21184;DHT22;18176;49.502;11.754;2023-08-06T03:17:22;13.30;99.90
21184;DHT22;18176;49.502;11.754;2023-08-06T03:21:23;13.30;99.90
21184;DHT22;18176;49.502;11.754;2023-08-06T03:25:23;13.30;99.90
21184;DHT22;18176;49.502;11.754;2023-08-06T03:29:24;13.30;99.90
21184;DHT22;18176;49.502;11.754;2023-08-06T03:33:31;13.20;99.90
21184;DHT22;18176;49.502;11.754;2023-08-06T03:37:33;13.20;99.90
21184;DHT22;18176;49.502;11.754;2023-08-06T03:41:35;13.20;99.90
21184;DHT22;18176;49.502;11.754;2023-08-06T03:45:36;13.20;99.90
21184;DHT22;18176;49.502;11.754;2023-08-06T03:49:39;13.20;99.90
21184;DHT22;18176;49.502;11.754;2023-08-06T03:53:41;13.20;99.90
21184;DHT22;18176;49.502;11.754;2023-08-06T03:57:42;13.10;99.90
21184;DHT22;18176;49.502;11.754;2023-08-06T04:01:45;13.10;99.90
21184;DHT22;18176;49.502;11.754;2023-08-06T04:05:48;13.10;99.90
21184;DHT22;18176;49.502;11.754;2023-08-06T04:09:53;13.20;99.90
21184;DHT22;18176;49.502;11.754;2023-08-06T04:13:55;13.20;99.90
21184;DHT22;18176;49.502;11.754;2023-08-06T04:17:55;13.10;99.90
21184;DHT22;18176;49.502;11.754;2023-08-06T04:21:58;13.10;99.90
21184;DHT22;18176;49.502;11.754;2023-08-06T04:25:58;13.10;99.90
21184;DHT22;18176;49.502;11.754;2023-08-06T04:30:03;13.10;99.90
21184;DHT22;18176;49.502;11.754;2023-08-06T04:34:07;13.10;99.90
21184;DHT22;18176;49.502;11.754;2023-08-06T04:38:11;13.10;99.90
21184;DHT22;18176;49.502;11.754;2023-08-06T04:42:11;13.20;99.90
21184;DHT22;18176;49.502;11.754;2023-08-06T04:46:11;13.20;99.90
21184;DHT22;18176;49.502;11.754;2023-08-06T04:50:12;13.20;99.90
21184;DHT22;18176;49.502;11.754;2023-08-06T04:54:15;13.20;99.90
21184;DHT22;18176;49.502;11.754;2023-08-06T04:58:15;13.30;99.90
21184;DHT22;18176;49.502;11.754;2023-08-06T05:02:15;13.30;99.90
21184;DHT22;18176;49.502;11.754;2023-08-06T05:06:15;13.30;99.90
21184;DHT22;18176;49.502;11.754;2023-08-06T05:10:18;13.40;99.90
21184;DHT22;18176;49.502;11.754;2023-08-06T05:14:19;13.40;99.90
21184;DHT22;18176;49.502;11.754;2023-08-06T05:18:19;13.50;99.90
21184;DHT22;18176;49.502;11.754;2023-08-06T05:22:19;13.60;99.90
21184;DHT22;18176;49.502;11.754;2023-08-06T05:26:22;13.60;99.90
21184;DHT22;18176;49.502;11.754;2023-08-06T05:30:23;13.60;99.90
21184;DHT22;18176;49.502;11.754;2023-08-06T05:34:23;13.70;99.90
21184;DHT22;18176;49.502;11.754;2023-08-06T05:38:24;13.70;99.90
21184;DHT22;18176;49.502;11.754;2023-08-06T05:42:26;13.80;99.90
21184;DHT22;18176;49.502;11.754;2023-08-06T05:46:27;13.80;99.90
21184;DHT22;18176;49.502;11.754;2023-08-06T05:50:27;13.80;99.90
21184;DHT22;18176;49.502;11.754;2023-08-06T05:54:27;13.90;99.90
21184;DHT22;18176;49.502;11.754;2023-08-06T05:58:30;13.90;99.90
21184;DHT22;18176;49.502;11.754;2023-08-06T06:02:30;13.80;99.90
21184;DHT22;18176;49.502;11.754;2023-08-06T06:06:31;13.90;99.90
21184;DHT22;18176;49.502;11.754;2023-08-06T06:10:31;14.00;99.90
21184;DHT22;18176;49.502;11.754;2023-08-06T06:14:34;14.10;99.90
21184;DHT22;18176;49.502;11.754;2023-08-06T06:18:34;14.10;99.90
21184;DHT22;18176;49.502;11.754;2023-08-06T06:22:35;14.10;99.90
21184;DHT22;18176;49.502;11.754;2023-08-06T06:26:35;14.00;99.90
21184;DHT22;18176;49.502;11.754;2023-08-06T06:30:38;14.10;99.90
21184;DHT22;18176;49.502;11.754;2023-08-06T06:34:39;14.20;99.90
21184;DHT22;18176;49.502;11.754;2023-08-06T06:38:39;14.20;99.90
21184;DHT22;18176;49.502;11.754;2023-08-06T06:42:39;14.30;99.90
21184;DHT22;18176;49.502;11.754;2023-08-06T06:46:43;14.50;99.90
21184;DHT22;18176;49.502;11.754;2023-08-06T06:50:47;14.70;99.90
21184;DHT22;18176;49.502;11.754;2023-08-06T06:54:47;14.80;99.90
21184;DHT22;18176;49.502;11.754;2023-08-06T06:58:48;14.80;99.90
21184;DHT22;18176;49.502;11.754;2023-08-06T07:02:51;14.80;99.90
21184;DHT22;18176;49.502;11.754;2023-08-06T07:06:52;14.80;99.90
21184;DHT22;18176;49.502;11.754;2023-08-06T07:10:59;14.70;99.90
21184;DHT22;18176;49.502;11.754;2023-08-06T07:15:01;14.70;99.90
21184;DHT22;18176;49.502;11.754;2023-08-06T07:19:04;14.90;99.90
21184;DHT22;18176;49.502;11.754;2023-08-06T07:23:05;14.90;99.90
21184;DHT22;18176;49.502;11.754;2023-08-06T07:27:06;14.90;99.90
21184;DHT22;18176;49.502;11.754;2023-08-06T07:31:07;15.10;99.90
21184;DHT22;18176;49.502;11.754;2023-08-06T07:35:10;15.40;99.90
21184;DHT22;18176;49.502;11.754;2023-08-06T07:39:13;15.70;99.90
21184;DHT22;18176;49.502;11.754;2023-08-06T07:43:14;15.90;99.90
21184;DHT22;18176;49.502;11.754;2023-08-06T07:47:14;16.10;99.90
21184;DHT22;18176;49.502;11.754;2023-08-06T07:51:17;16.50;99.90
21184;DHT22;18176;49.502;11.754;2023-08-06T07:55:18;16.80;99.90
21184;DHT22;18176;49.502;11.754;2023-08-06T07:59:19;16.60;99.90
21184;DHT22;18176;49.502;11.754;2023-08-06T08:03:19;16.50;99.90
21184;DHT22;18176;49.502;11.754;2023-08-06T08:07:22;16.50;99.90
21184;DHT22;18176;49.502;11.754;2023-08-06T08:11:25;16.70;99.90
21184;DHT22;18176;49.502;11.754;2023-08-06T08:15:27;17.10;99.90
21184;DHT22;18176;49.502;11.754;2023-08-06T08:19:28;17.40;99.90
21184;DHT22;18176;49.502;11.754;2023-08-06T08:23:31;17.20;99.90
21184;DHT22;18176;49.502;11.754;2023-08-06T08:27:31;16.70;99.90
21184;DHT22;18176;49.502;11.754;2023-08-06T08:31:32;16.80;99.90
21184;DHT22;18176;49.502;11.754;2023-08-06T08:35:36;17.50;99.90
21184;DHT22;18176;49.502;11.754;2023-08-06T08:39:40;18.40;99.90
21184;DHT22;18176;49.502;11.754;2023-08-06T08:43:40;18.50;99.90
21184;DHT22;18176;49.502;11.754;2023-08-06T08:47:42;18.60;99.90
21184;DHT22;18176;49.502;11.754;2023-08-06T08:51:45;18.60;99.90
21184;DHT22;18176;49.502;11.754;2023-08-06T08:55:49;18.00;99.90
21184;DHT22;18176;49.502;11.754;2023-08-06T08:59:50;17.60;99.90
21184;DHT22;18176;49.502;11.754;2023-08-06T09:03:51;17.50;99.90
21184;DHT22;18176;49.502;11.754;2023-08-06T09:07:55;18.30;99.90
21184;DHT22;18176;49.502;11.754;2023-08-06T09:12:09;19.60;99.90
21184;DHT22;18176;49.502;11.754;2023-08-06T09:16:13;19.80;99.90
21184;DHT22;18176;49.502;11.754;2023-08-06T09:20:15;19.40;99.90
21184;DHT22;18176;49.502;11.754;2023-08-06T09:24:16;20.30;99.90
21184;DHT22;18176;49.502;11.754;2023-08-06T09:28:20;21.60;99.90
21184;DHT22;18176;49.502;11.754;2023-08-06T09:32:21;22.20;99.90
21184;DHT22;18176;49.502;11.754;2023-08-06T09:36:22;20.60;99.90
21184;DHT22;18176;49.502;11.754;2023-08-06T09:40:26;19.70;99.90
21184;DHT22;18176;49.502;11.754;2023-08-06T09:44:32;20.20;99.90
21184;DHT22;18176;49.502;11.754;2023-08-06T09:48:33;19.70;99.90
21184;DHT22;18176;49.502;11.754;2023-08-06T09:52:34;17.40;99.90
21184;DHT22;18176;49.502;11.754;2023-08-06T09:56:35;16.30;99.90
21184;DHT22;18176;49.502;11.754;2023-08-06T10:00:38;15.70;99.90
21184;DHT22;18176;49.502;11.754;2023-08-06T10:04:38;15.50;99.90
21184;DHT22;18176;49.502;11.754;2023-08-06T10:08:41;15.80;99.90
21184;DHT22;18176;49.502;11.754;2023-08-06T10:12:45;16.10;99.90
21184;DHT22;18176;49.502;11.754;2023-08-06T10:16:51;16.30;99.90
21184;DHT22;18176;49.502;11.754;2023-08-06T10:20:51;17.40;99.90
21184;DHT22;18176;49.502;11.754;2023-08-06T10:24:53;19.10;99.90
21184;DHT22;18176;49.502;11.754;2023-08-06T10:28:55;19.20;99.90
21184;DHT22;18176;49.502;11.754;2023-08-06T10:32:59;18.40;99.90
21184;DHT22;18176;49.502;11.754;2023-08-06T10:37:01;18.60;99.90
21184;DHT22;18176;49.502;11.754;2023-08-06T10:41:03;18.50;99.90
21184;DHT22;18176;49.502;11.754;2023-08-06T10:45:17;19.10;99.90
21184;DHT22;18176;49.502;11.754;2023-08-06T10:49:23;20.10;99.90
21184;DHT22;18176;49.502;11.754;2023-08-06T10:53:24;19.90;99.90
21184;DHT22;18176;49.502;11.754;2023-08-06T10:57:29;19.60;99.90
21184;DHT22;18176;49.502;11.754;2023-08-06T11:01:29;19.00;99.90
21184;DHT22;18176;49.502;11.754;2023-08-06T11:05:35;19.30;99.90
21184;DHT22;18176;49.502;11.754;2023-08-06T11:09:37;20.40;99.90
21184;DHT22;18176;49.502;11.754;2023-08-06T11:13:37;20.90;99.90
21184;DHT22;18176;49.502;11.754;2023-08-06T11:17:39;21.70;99.90
21184;DHT22;18176;49.502;11.754;2023-08-06T11:21:46;21.10;99.90
21184;DHT22;18176;49.502;11.754;2023-08-06T11:25:47;20.10;99.90
21184;DHT22;18176;49.502;11.754;2023-08-06T11:29:48;20.50;99.90
21184;DHT22;18176;49.502;11.754;2023-08-06T11:33:49;21.60;99.90
21184;DHT22;18176;49.502;11.754;2023-08-06T11:37:54;20.80;99.90
21184;DHT22;18176;49.502;11.754;2023-08-06T11:41:54;20.00;99.90
21184;DHT22;18176;49.502;11.754;2023-08-06T11:45:57;19.50;99.90
21184;DHT22;18176;49.502;11.754;2023-08-06T11:49:57;19.50;99.90
21184;DHT22;18176;49.502;11.754;2023-08-06T11:54:02;18.80;99.90
21184;DHT22;18176;49.502;11.754;2023-08-06T11:58:04;18.00;99.90
21184;DHT22;18176;49.502;11.754;2023-08-06T12:02:07;18.00;99.90
21184;DHT22;18176;49.502;11.754;2023-08-06T12:06:09;18.80;99.90
21184;DHT22;18176;49.502;11.754;2023-08-06T12:10:13;20.60;99.90
21184;DHT22;18176;49.502;11.754;2023-08-06T12:14:14;21.50;99.90
21184;DHT22;18176;49.502;11.754;2023-08-06T12:18:14;21.50;99.90
21184;DHT22;18176;49.502;11.754;2023-08-06T12:22:15;21.10;99.90
21184;DHT22;18176;49.502;11.754;2023-08-06T12:26:23;21.20;99.90
21184;DHT22;18176;49.502;11.754;2023-08-06T12:30:23;20.80;99.90
21184;DHT22;18176;49.502;11.754;2023-08-06T12:34:24;20.60;99.90
21184;DHT22;18176;49.502;11.754;2023-08-06T12:38:32;20.30;99.90
21184;DHT22;18176;49.502;11.754;2023-08-06T12:42:35;21.50;99.90
21184;DHT22;18176;49.502;11.754;2023-08-06T12:46:35;22.40;99.90
21184;DHT22;18176;49.502;11.754;2023-08-06T12:50:36;21.00;99.90
21184;DHT22;18176;49.502;11.754;2023-08-06T12:54:36;20.00;99.90
21184;DHT22;18176;49.502;11.754;2023-08-06T12:58:39;20.40;99.90
21184;DHT22;18176;49.502;11.754;2023-08-06T13:02:39;19.70;99.90
21184;DHT22;18176;49.502;11.754;2023-08-06T13:06:40;19.50;99.90
21184;DHT22;18176;49.502;11.754;2023-08-06T13:10:40;21.10;99.90
21184;DHT22;18176;49.502;11.754;2023-08-06T13:14:43;21.30;99.90
21184;DHT22;18176;49.502;11.754;2023-08-06T13:18:44;19.10;99.90
21184;DHT22;18176;49.502;11.754;2023-08-06T13:22:44;16.80;99.90
21184;DHT22;18176;49.502;11.754;2023-08-06T13:26:48;16.10;99.90
21184;DHT22;18176;49.502;11.754;2023-08-06T13:30:51;16.40;99.90
21184;DHT22;18176;49.502;11.754;2023-08-06T13:34:52;17.00;99.90
21184;DHT22;18176;49.502;11.754;2023-08-06T13:38:54;18.20;99.90
21184;DHT22;18176;49.502;11.754;2023-08-06T13:42:54;19.50;99.90
21184;DHT22;18176;49.502;11.754;2023-08-06T13:46:57;19.50;99.90
21184;DHT22;18176;49.502;11.754;2023-08-06T13:50:58;18.70;99.90
21184;DHT22;18176;49.502;11.754;2023-08-06T13:54:58;17.40;99.90
21184;DHT22;18176;49.502;11.754;2023-08-06T13:59:01;16.50;99.90
21184;DHT22;18176;49.502;11.754;2023-08-06T14:03:04;16.10;99.90
21184;DHT22;18176;49.502;11.754;2023-08-06T14:07:05;16.20;99.90
21184;DHT22;18176;49.502;11.754;2023-08-06T14:11:07;16.30;99.90
21184;DHT22;18176;49.502;11.754;2023-08-06T14:15:09;16.60;99.90
21184;DHT22;18176;49.502;11.754;2023-08-06T14:19:13;16.90;99.90
21184;DHT22;18176;49.502;11.754;2023-08-06T14:23:13;17.30;99.90
21184;DHT22;18176;49.502;11.754;2023-08-06T14:27:13;18.10;99.90
21184;DHT22;18176;49.502;11.754;2023-08-06T14:31:14;19.20;99.90
21184;DHT22;18176;49.502;11.754;2023-08-06T14:35:17;19.70;99.90
21184;DHT22;18176;49.502;11.754;2023-08-06T14:39:17;18.90;99.90
21184;DHT22;18176;49.502;11.754;2023-08-06T14:43:18;18.00;99.90
21184;DHT22;18176;49.502;11.754;2023-08-06T14:47:18;18.10;99.90
21184;DHT22;18176;49.502;11.754;2023-08-06T14:51:21;18.10;99.90
21184;DHT22;18176;49.502;11.754;2023-08-06T14:55:25;17.40;99.90
21184;DHT22;18176;49.502;11.754;2023-08-06T14:59:26;17.30;99.90
21184;DHT22;18176;49.502;11.754;2023-08-06T15:03:29;17.10;99.90
21184;DHT22;18176;49.502;11.754;2023-08-06T15:07:36;16.30;99.90
21184;DHT22;18176;49.502;11.754;2023-08-06T15:11:36;15.90;99.90
21184;DHT22;18176;49.502;11.754;2023-08-06T15:15:37;15.50;99.90
21184;DHT22;18176;49.502;11.754;2023-08-06T15:19:39;15.20;99.90
21184;DHT22;18176;49.502;11.754;2023-08-06T15:23:42;14.90;99.90
21184;DHT22;18176;49.502;11.754;2023-08-06T15:27:43;14.60;99.90
21184;DHT22;18176;49.502;11.754;2023-08-06T15:31:43;14.50;99.90
21184;DHT22;18176;49.502;11.754;2023-08-06T15:35:44;14.40;99.90
21184;DHT22;18176;49.502;11.754;2023-08-06T15:39:47;14.30;99.90
21184;DHT22;18176;49.502;11.754;2023-08-06T15:43:47;14.20;99.90
21184;DHT22;18176;49.502;11.754;2023-08-06T15:47:47;14.20;99.90
21184;DHT22;18176;49.502;11.754;2023-08-06T15:51:48;14.00;99.90
21184;DHT22;18176;49.502;11.754;2023-08-06T15:55:52;13.80;99.90
21184;DHT22;18176;49.502;11.754;2023-08-06T15:59:53;13.80;99.90
21184;DHT22;18176;49.502;11.754;2023-08-06T16:03:53;13.70;99.90
21184;DHT22;18176;49.502;11.754;2023-08-06T16:07:54;13.60;99.90
21184;DHT22;18176;49.502;11.754;2023-08-06T16:11:57;13.50;99.90
21184;DHT22;18176;49.502;11.754;2023-08-06T16:15:58;13.40;99.90
21184;DHT22;18176;49.502;11.754;2023-08-06T16:20:00;13.40;99.90
21184;DHT22;18176;49.502;11.754;2023-08-06T16:24:00;13.30;99.90
21184;DHT22;18176;49.502;11.754;2023-08-06T16:28:04;13.30;99.90
21184;DHT22;18176;49.502;11.754;2023-08-06T16:32:05;13.30;99.90
21184;DHT22;18176;49.502;11.754;2023-08-06T16:36:06;13.30;99.90
21184;DHT22;18176;49.502;11.754;2023-08-06T16:40:07;13.20;99.90
21184;DHT22;18176;49.502;11.754;2023-08-06T16:44:12;13.20;99.90
21184;DHT22;18176;49.502;11.754;2023-08-06T16:48:12;13.20;99.90
21184;DHT22;18176;49.502;11.754;2023-08-06T16:52:13;13.20;99.90
21184;DHT22;18176;49.502;11.754;2023-08-06T16:56:14;13.30;99.90
21184;DHT22;18176;49.502;11.754;2023-08-06T17:00:17;13.40;99.90
21184;DHT22;18176;49.502;11.754;2023-08-06T17:04:17;13.40;99.90
21184;DHT22;18176;49.502;11.754;2023-08-06T17:08:18;13.40;99.90
21184;DHT22;18176;49.502;11.754;2023-08-06T17:12:18;13.40;99.90
21184;DHT22;18176;49.502;11.754;2023-08-06T17:16:21;13.40;99.90
21184;DHT22;18176;49.502;11.754;2023-08-06T17:20:22;13.30;99.90
21184;DHT22;18176;49.502;11.754;2023-08-06T17:24:22;13.30;99.90
21184;DHT22;18176;49.502;11.754;2023-08-06T17:28:22;13.30;99.90
21184;DHT22;18176;49.502;11.754;2023-08-06T17:32:25;13.20;99.90
21184;DHT22;18176;49.502;11.754;2023-08-06T17:36:26;13.10;99.90
21184;DHT22;18176;49.502;11.754;2023-08-06T17:40:26;13.00;99.90
21184;DHT22;18176;49.502;11.754;2023-08-06T17:44:28;13.00;99.90
21184;DHT22;18176;49.502;11.754;2023-08-06T17:48:31;13.00;99.90
21184;DHT22;18176;49.502;11.754;2023-08-06T17:52:32;13.00;99.90
21184;DHT22;18176;49.502;11.754;2023-08-06T17:56:33;13.00;99.90
21184;DHT22;18176;49.502;11.754;2023-08-06T18:00:33;12.90;99.90
21184;DHT22;18176;49.502;11.754;2023-08-06T18:04:36;12.90;99.90
21184;DHT22;18176;49.502;11.754;2023-08-06T18:08:37;12.80;99.90
21184;DHT22;18176;49.502;11.754;2023-08-06T18:12:37;12.70;99.90
21184;DHT22;18176;49.502;11.754;2023-08-06T18:16:40;12.70;99.90
21184;DHT22;18176;49.502;11.754;2023-08-06T18:20:43;12.60;99.90
21184;DHT22;18176;49.502;11.754;2023-08-06T18:24:43;12.50;99.90
21184;DHT22;18176;49.502;11.754;2023-08-06T18:28:43;12.50;99.90
21184;DHT22;18176;49.502;11.754;2023-08-06T18:32:44;12.50;99.90
21184;DHT22;18176;49.502;11.754;2023-08-06T18:36:48;12.50;99.90
21184;DHT22;18176;49.502;11.754;2023-08-06T18:40:55;12.50;99.90
21184;DHT22;18176;49.502;11.754;2023-08-06T18:44:57;12.50;99.90
21184;DHT22;18176;49.502;11.754;2023-08-06T18:48:58;12.50;99.90
21184;DHT22;18176;49.502;11.754;2023-08-06T18:53:04;12.50;99.90
21184;DHT22;18176;49.502;11.754;2023-08-06T18:57:05;12.50;99.90
21184;DHT22;18176;49.502;11.754;2023-08-06T19:01:06;12.50;99.90
21184;DHT22;18176;49.502;11.754;2023-08-06T19:05:08;12.50;99.90
21184;DHT22;18176;49.502;11.754;2023-08-06T19:09:17;12.40;99.90
21184;DHT22;18176;49.502;11.754;2023-08-06T19:13:18;12.40;99.90
21184;DHT22;18176;49.502;11.754;2023-08-06T19:17:19;12.40;99.90
21184;DHT22;18176;49.502;11.754;2023-08-06T19:21:19;12.30;99.90
21184;DHT22;18176;49.502;11.754;2023-08-06T19:25:22;12.30;99.90
21184;DHT22;18176;49.502;11.754;2023-08-06T19:29:25;12.20;99.90
21184;DHT22;18176;49.502;11.754;2023-08-06T19:33:26;12.20;99.90
21184;DHT22;18176;49.502;11.754;2023-08-06T19:37:26;12.20;99.90
21184;DHT22;18176;49.502;11.754;2023-08-06T19:41:30;12.20;99.90
21184;DHT22;18176;49.502;11.754;2023-08-06T19:45:30;12.20;99.90
21184;DHT22;18176;49.502;11.754;2023-08-06T19:49:31;12.20;99.90
21184;DHT22;18176;49.502;11.754;2023-08-06T19:53:33;12.20;99.90
21184;DHT22;18176;49.502;11.754;2023-08-06T19:57:39;12.20;99.90
21184;DHT22;18176;49.502;11.754;2023-08-06T20:01:39;12.20;99.90
21184;DHT22;18176;49.502;11.754;2023-08-06T20:05:41;12.30;99.90
21184;DHT22;18176;49.502;11.754;2023-08-06T20:09:42;12.30;99.90
21184;DHT22;18176;49.502;11.754;2023-08-06T20:13:46;12.30;99.90
21184;DHT22;18176;49.502;11.754;2023-08-06T20:17:47;12.30;99.90
21184;DHT22;18176;49.502;11.754;2023-08-06T20:21:49;12.20;99.90
21184;DHT22;18176;49.502;11.754;2023-08-06T20:25:50;12.20;99.90
21184;DHT22;18176;49.502;11.754;2023-08-06T20:29:54;12.20;99.90
21184;DHT22;18176;49.502;11.754;2023-08-06T20:33:54;12.30;99.90
21184;DHT22;18176;49.502;11.754;2023-08-06T20:37:55;12.20;99.90
21184;DHT22;18176;49.502;11.754;2023-08-06T20:41:56;12.20;99.90
21184;DHT22;18176;49.502;11.754;2023-08-06T20:45:59;12.20;99.90
21184;DHT22;18176;49.502;11.754;2023-08-06T20:50:01;12.20;99.90
21184;DHT22;18176;49.502;11.754;2023-08-06T20:54:02;12.20;99.90
21184;DHT22;18176;49.502;11.754;2023-08-06T20:58:03;12.20;99.90
21184;DHT22;18176;49.502;11.754;2023-08-06T21:02:08;12.20;99.90
21184;DHT22;18176;49.502;11.754;2023-08-06T21:06:09;12.20;99.90
21184;DHT22;18176;49.502;11.754;2023-08-06T21:10:12;12.10;99.90
21184;DHT22;18176;49.502;11.754;2023-08-06T21:14:13;12.10;99.90
21184;DHT22;18176;49.502;11.754;2023-08-06T21:18:17;12.10;99.90
21184;DHT22;18176;49.502;11.754;2023-08-06T21:22:17;12.10;99.90
21184;DHT22;18176;49.502;11.754;2023-08-06T21:26:18;12.10;99.90
21184;DHT22;18176;49.502;11.754;2023-08-06T21:30:18;12.00;99.90
21184;DHT22;18176;49.502;11.754;2023-08-06T21:34:21;12.00;99.90
21184;DHT22;18176;49.502;11.754;2023-08-06T21:38:22;12.00;99.90
21184;DHT22;18176;49.502;11.754;2023-08-06T21:42:22;11.90;99.90
21184;DHT22;18176;49.502;11.754;2023-08-06T21:46:23;11.90;99.90
21184;DHT22;18176;49.502;11.754;2023-08-06T21:50:26;11.90;99.90
21184;DHT22;18176;49.502;11.754;2023-08-06T21:54:27;11.90;99.90
21184;DHT22;18176;49.502;11.754;2023-08-06T21:58:27;11.80;99.90
21184;DHT22;18176;49.502;11.754;2023-08-06T22:02:27;11.80;99.90
21184;DHT22;18176;49.502;11.754;2023-08-06T22:06:30;11.80;99.90
21184;DHT22;18176;49.502;11.754;2023-08-06T22:10:31;11.80;99.90
21184;DHT22;18176;49.502;11.754;2023-08-06T22:14:31;11.70;99.90
21184;DHT22;18176;49.502;11.754;2023-08-06T22:18:32;11.70;99.90
21184;DHT22;18176;49.502;11.754;2023-08-06T22:22:36;11.70;99.90
21184;DHT22;18176;49.502;11.754;2023-08-06T22:26:37;11.70;99.90
21184;DHT22;18176;49.502;11.754;2023-08-06T22:30:37;11.70;99.90
21184;DHT22;18176;49.502;11.754;2023-08-06T22:34:38;11.70;99.90
21184;DHT22;18176;49.502;11.754;2023-08-06T22:38:41;11.70;99.90
21184;DHT22;18176;49.502;11.754;2023-08-06T22:42:41;11.70;99.90
21184;DHT22;18176;49.502;11.754;2023-08-06T22:46:42;11.60;99.90
21184;DHT22;18176;49.502;11.754;2023-08-06T22:50:42;11.70;99.90
21184;DHT22;18176;49.502;11.754;2023-08-06T22:54:45;11.60;99.90
21184;DHT22;18176;49.502;11.754;2023-08-06T22:59:05;11.60;99.90
21184;DHT22;18176;49.502;11.754;2023-08-06T23:03:05;11.60;99.90
21184;DHT22;18176;49.502;11.754;2023-08-06T23:07:09;11.60;99.90
21184;DHT22;18176;49.502;11.754;2023-08-06T23:11:12;11.60;99.90
21184;DHT22;18176;49.502;11.754;2023-08-06T23:15:12;11.50;99.90
21184;DHT22;18176;49.502;11.754;2023-08-06T23:19:12;11.60;99.90
21184;DHT22;18176;49.502;11.754;2023-08-06T23:23:12;11.60;99.90
21184;DHT22;18176;49.502;11.754;2023-08-06T23:27:15;11.50;99.90
21184;DHT22;18176;49.502;11.754;2023-08-06T23:31:16;11.50;99.90
21184;DHT22;18176;49.502;11.754;2023-08-06T23:35:16;11.50;99.90
21184;DHT22;18176;49.502;11.754;2023-08-06T23:39:16;11.50;99.90
21184;DHT22;18176;49.502;11.754;2023-08-06T23:43:19;11.50;99.90
21184;DHT22;18176;49.502;11.754;2023-08-06T23:47:20;11.40;99.90
21184;DHT22;18176;49.502;11.754;2023-08-06T23:51:20;11.40;99.90
21184;DHT22;18176;49.502;11.754;2023-08-06T23:55:20;11.40;99.90
21184;DHT22;18176;49.502;11.754;2023-08-06T23:59:23;11.40;99.90
